Aérodrome :
LOGIN :

S'inscrire | Disclaimer

   EN    FR    IT 

 










Légende :    VFR   VFR Marginal   IFR   IFR Intensif   IFR Très Intensif
Visi : 
Plafond : 
>= 8 km
>= 3000ft
5 à 8 km
1000 à 3000 ft
1500m à 5 km
500 à 1000 ft
800 à 1500m
200 à 500 ft
< 800m
< 200 ft
Symboles :   Orages  Brouillard  Fortes neiges  Fortes précipitations  Vent > 20 kt
SIGMETs :   Divers  Orages  Givrage  Turbulence  Onde Orograph.  Cendres Volcan.






- Altitude de l'aérodrome : 502 ft
- Code IATA : ORK


EICK - Cork

DERNIER METAR :
  • 170030Z 22020KT 9999 FEW018CB SCT030 04/01 Q0996 NOSIG

METARs EXPIRÉS :
  • 170000Z 23019KT 9999 FEW018CB SCT030 04/01 Q0996 NOSIG
  • 162330Z 22020G31KT 9999 FEW018CB SCT090 BKN120 04/02 Q0996 NOSIG
  • 162300Z 23023G38KT 9999 -SHRA SCT018CB SCT045 04/01 Q0996 NOSIG
  • 162230Z 23022G35KT 9999 FEW018CB 04/M00 Q0996 NOSIG
  • 162200Z 23023KT 9999 FEW018CB SCT090 04/M00 Q0995 NOSIG

TAF TAF EICK
Valide du 17 à 00h jusqu'au 18 à 00h UTC


162300Z 1700/1724 24020G30KT 9999 FEW015 SCT020
TEMPO 1700/1724 -SHRA FEW018CB
PROB40
TEMPO 1700/1703 25025G40KT 4000 SHRAGS BKN012 SCT018CB
BECMG 1703/1705 26015KT
TEMPO 1707/1717 28020G30KT



MET'MAP, la Météo Aéronautique d'un coup d'oeil ! - Copyright ORBIFLY Décembre 2007 - Disclaimer

ORBIFLY MET'MAP TEAM :

Programmation & Développement : Alexandra Zaïnal
Sur une idée originale de : Baudouin d'Aumeries
Assistance à la programmation : Marc-Olivier Méhu
Soutien technique & logistique : Manuel Goepfert

Contact : metmap@orbifly.com




SOURCES & CREDITS :

   NOAA